Time;durP1;ratioP1;P1;durP2;ratioP2;P2;SDS_P1;SDS_P2;PMS_P1;PMS_P2;Temp;Humidity;BMP_temperature;BMP_pressure;BME280_temperature;BME280_humidity;BME280_pressure;Samples;Min_cycle;Max_cycle;Signal;HPM_P1;HPM_P2
2023/07/26 00:02:17;;;;;;;4.13;3.30;;;;;;;14.27;78.57;101090.59;5055119;28;20515;-83
2023/07/26 00:04:42;;;;;;;3.42;2.72;;;;;;;14.25;78.38;101088.06;5055254;28;20025;-82
2023/07/26 00:07:07;;;;;;;4.13;2.83;;;;;;;14.27;78.43;101095.94;5052249;28;20483;-82
2023/07/26 00:09:33;;;;;;;5.68;3.28;;;;;;;14.24;78.57;101084.56;5049970;28;20036;-82
2023/07/26 00:11:58;;;;;;;5.57;3.20;;;;;;;14.22;78.71;101078.50;5055187;28;20217;-82
2023/07/26 00:14:23;;;;;;;4.38;2.95;;;;;;;14.23;78.87;101084.69;5050574;28;20821;-82
2023/07/26 00:16:49;;;;;;;4.85;3.42;;;;;;;14.20;79.65;101077.78;5048872;28;20029;-82
2023/07/26 00:19:16;;;;;;;3.97;3.00;;;;;;;14.22;78.72;101078.50;5052123;28;20025;-82
2023/07/26 00:21:41;;;;;;;3.70;3.30;;;;;;;14.20;79.17;101076.94;5050306;28;20029;-82
2023/07/26 00:24:06;;;;;;;4.32;2.97;;;;;;;14.16;79.11;101076.38;5057164;28;20025;-82
2023/07/26 00:26:32;;;;;;;3.85;3.42;;;;;;;14.14;79.95;101086.34;5051494;28;20056;-82
2023/07/26 00:28:57;;;;;;;5.03;3.10;;;;;;;14.14;79.19;101080.16;5048298;28;20028;-83
2023/07/26 00:31:23;;;;;;;4.38;3.40;;;;;;;14.11;79.21;101070.59;5050728;28;20032;-83
2023/07/26 00:33:48;;;;;;;4.05;3.22;;;;;;;14.17;79.71;101080.75;5048578;28;20347;-83
2023/07/26 00:36:13;;;;;;;3.45;3.15;;;;;;;14.13;79.55;101083.81;5050586;28;20021;-82
2023/07/26 00:38:39;;;;;;;6.20;3.20;;;;;;;14.13;79.65;101075.81;5048282;28;20107;-82
2023/07/26 00:41:06;;;;;;;5.72;3.35;;;;;;;14.11;78.86;101080.44;5050807;28;20112;-82
2023/07/26 00:43:32;;;;;;;5.78;3.65;;;;;;;14.09;79.80;101077.91;5048498;28;20029;-82
2023/07/26 00:45:58;;;;;;;4.97;3.63;;;;;;;14.03;79.92;101073.09;5048191;28;20026;-82
2023/07/26 00:48:24;;;;;;;3.85;3.40;;;;;;;14.09;79.83;101077.03;5050539;28;20096;-82
2023/07/26 00:50:50;;;;;;;6.18;3.63;;;;;;;14.03;80.45;101073.94;5048360;28;20051;-82
2023/07/26 00:53:15;;;;;;;4.30;3.70;;;;;;;14.01;80.40;101067.03;5053055;28;20029;-82
2023/07/26 00:55:43;;;;;;;3.50;3.20;;;;;;;14.02;79.80;101077.59;5047399;28;20109;-82
2023/07/26 00:58:10;;;;;;;6.45;3.85;;;;;;;14.01;79.69;101075.06;5052906;28;20036;-83
2023/07/26 01:00:39;;;;;;;3.63;3.33;;;;;;;13.96;79.70;101067.44;5047901;28;20086;-83
2023/07/26 01:03:05;;;;;;;5.57;3.63;;;;;;;13.98;80.97;101075.31;5052799;28;20035;-82
2023/07/26 01:05:34;;;;;;;3.92;3.40;;;;;;;13.99;80.85;101072.50;5050129;28;20467;-82
2023/07/26 01:08:44;;;;;;;5.93;3.85;;;;;;;14.02;80.46;101080.25;5053595;28;20033;-82
2023/07/26 01:11:34;;;;;;;3.78;3.47;;;;;;;14.00;80.49;101079.53;5058258;28;20048;-82
2023/07/26 01:14:10;;;;;;;4.82;3.65;;;;;;;13.94;80.57;101084.56;5056561;28;20025;-82
2023/07/26 01:16:36;;;;;;;3.80;3.40;;;;;;;13.86;81.46;101083.41;5058128;28;20026;-83
2023/07/26 01:19:01;;;;;;;3.83;3.42;;;;;;;13.84;81.53;101090.72;5057619;28;20029;-82
2023/07/26 01:21:31;;;;;;;5.80;3.67;;;;;;;13.81;81.75;101085.63;5051549;28;20120;-82
2023/07/26 01:23:56;;;;;;;6.00;3.42;;;;;;;13.76;82.48;101085.19;5053588;28;20037;-83
2023/07/26 01:26:22;;;;;;;7.35;3.95;;;;;;;13.76;82.38;101089.69;5056082;28;20059;-83
2023/07/26 01:28:48;;;;;;;4.55;3.83;;;;;;;13.69;82.44;101087.53;5048891;28;20079;-82
2023/07/26 01:31:16;;;;;;;4.05;3.67;;;;;;;13.65;83.04;101074.59;5051303;28;20021;-82
2023/07/26 01:33:42;;;;;;;7.97;4.00;;;;;;;13.66;83.05;101078.97;5050891;28;20078;-82
2023/07/26 01:36:09;;;;;;;4.90;3.78;;;;;;;13.63;83.35;101081.88;5054241;28;20032;-82
2023/07/26 01:38:34;;;;;;;4.78;3.65;;;;;;;13.58;83.48;101073.44;5051659;28;20044;-82
2023/07/26 01:41:01;;;;;;;3.95;3.65;;;;;;;13.55;83.20;101079.03;5052195;28;20025;-82
2023/07/26 01:43:27;;;;;;;3.58;3.28;;;;;;;13.53;83.81;101086.31;5050766;28;20028;-82
2023/07/26 01:45:52;;;;;;;7.38;3.70;;;;;;;13.51;82.77;101078.44;5051451;28;20024;-82
2023/07/26 01:48:17;;;;;;;4.95;3.65;;;;;;;13.50;84.48;101074.91;5056795;28;20036;-82
2023/07/26 01:50:43;;;;;;;5.10;3.78;;;;;;;13.50;83.78;101082.09;5062447;28;20048;-82
2023/07/26 01:53:08;;;;;;;4.88;3.88;;;;;;;13.47;85.04;101074.34;5054420;28;20025;-82
2023/07/26 01:55:34;;;;;;;4.00;3.60;;;;;;;13.43;83.90;101068.41;5057142;28;20040;-82
2023/07/26 01:57:59;;;;;;;4.65;3.80;;;;;;;13.32;85.27;101057.81;5055083;28;20021;-82
2023/07/26 02:00:24;;;;;;;4.20;3.80;;;;;;;13.40;84.79;101068.69;5054951;28;20103;-82
2023/07/26 02:02:49;;;;;;;5.43;3.63;;;;;;;13.41;84.74;101078.38;5055062;28;20039;-82
2023/07/26 02:05:16;;;;;;;5.30;3.70;;;;;;;13.37;84.26;101073.44;5052415;28;20121;-82
2023/07/26 02:07:42;;;;;;;8.60;4.03;;;;;;;13.33;85.19;101070.19;5060203;28;20051;-83
2023/07/26 02:10:08;;;;;;;4.85;3.20;;;;;;;13.31;85.72;101066.78;5056429;28;20479;-82
2023/07/26 02:12:33;;;;;;;3.47;3.00;;;;;;;13.32;85.31;101071.16;5056086;28;20033;-82
2023/07/26 02:14:59;;;;;;;7.10;3.30;;;;;;;13.29;85.80;101072.25;5053878;28;20025;-82
2023/07/26 02:17:24;;;;;;;6.78;3.13;;;;;;;13.29;84.25;101066.06;5053016;28;20079;-82
2023/07/26 02:19:50;;;;;;;4.80;3.28;;;;;;;13.29;84.41;101068.72;5051028;28;20107;-82
2023/07/26 02:22:15;;;;;;;3.95;3.10;;;;;;;13.27;85.05;101068.00;5050690;28;20432;-82
2023/07/26 02:24:40;;;;;;;4.07;2.55;;;;;;;13.24;85.21;101063.78;5056330;28;20027;-82
2023/07/26 02:27:06;;;;;;;4.85;3.10;;;;;;;13.20;85.41;101070.34;5048782;28;20522;-82
2023/07/26 02:29:32;;;;;;;3.85;3.13;;;;;;;13.20;86.41;101072.16;5053925;28;20065;-82
2023/07/26 02:31:57;;;;;;;3.65;3.00;;;;;;;13.16;86.36;101068.91;5046920;28;20036;-83
2023/07/26 02:34:23;;;;;;;4.80;3.17;;;;;;;13.18;86.13;101074.97;5051821;28;20021;-82
2023/07/26 02:36:48;;;;;;;4.22;3.10;;;;;;;13.17;85.69;101075.09;5049782;28;20035;-83
2023/07/26 02:39:13;;;;;;;4.35;3.35;;;;;;;13.10;85.90;101072.91;5051769;28;20113;-82
2023/07/26 02:41:38;;;;;;;4.07;3.10;;;;;;;13.14;85.87;101062.88;5049251;28;20415;-82
2023/07/26 02:44:04;;;;;;;3.83;3.20;;;;;;;13.09;86.07;101060.59;5053889;28;20078;-82
2023/07/26 02:46:29;;;;;;;5.97;3.13;;;;;;;13.10;85.93;101064.09;5058141;28;20107;-82
2023/07/26 02:48:54;;;;;;;3.42;2.95;;;;;;;13.04;86.57;101068.13;5050436;28;20053;-82
2023/07/26 02:51:19;;;;;;;5.10;3.00;;;;;;;13.02;86.43;101078.03;5047111;28;20471;-82
2023/07/26 02:53:45;;;;;;;3.40;2.95;;;;;;;13.04;86.55;101078.78;5052564;28;20434;-82
2023/07/26 02:56:10;;;;;;;3.80;3.40;;;;;;;13.01;86.76;101080.88;5047882;28;20029;-82
2023/07/26 02:58:35;;;;;;;4.47;3.17;;;;;;;12.95;89.46;101076.88;5053975;28;20083;-82
2023/07/26 03:01:01;;;;;;;3.60;3.30;;;;;;;12.91;91.10;101088.78;5052860;28;20373;-82
2023/07/26 03:03:26;;;;;;;5.65;3.72;;;;;;;12.87;91.74;101079.31;5057840;28;20040;-82
2023/07/26 03:05:51;;;;;;;5.75;3.72;;;;;;;12.90;92.10;101090.56;5052064;28;20033;-82
2023/07/26 03:08:16;;;;;;;5.47;3.85;;;;;;;12.89;92.80;101088.03;5053284;28;20029;-82
2023/07/26 03:10:42;;;;;;;5.22;4.18;;;;;;;12.89;91.58;101080.91;5056945;28;20123;-83
2023/07/26 03:13:07;;;;;;;6.45;4.85;;;;;;;12.87;93.97;101074.88;5054361;28;20379;-83
2023/07/26 03:15:32;;;;;;;4.78;4.03;;;;;;;12.87;93.48;101082.00;5048832;28;20025;-83
2023/07/26 03:17:58;;;;;;;5.18;4.30;;;;;;;12.88;94.05;101071.19;5055342;28;20017;-83
2023/07/26 03:20:23;;;;;;;6.95;3.97;;;;;;;12.88;94.53;101065.88;5055911;28;20025;-83
2023/07/26 03:22:48;;;;;;;5.30;3.60;;;;;;;12.88;93.82;101073.88;5053121;28;20114;-83
2023/07/26 03:25:14;;;;;;;4.72;3.60;;;;;;;12.90;93.90;101081.75;5053715;28;20438;-83
2023/07/26 03:27:39;;;;;;;4.28;3.45;;;;;;;12.90;93.60;101077.25;5061352;28;20103;-83
2023/07/26 03:30:05;;;;;;;5.00;3.60;;;;;;;12.88;94.22;101083.69;5050319;28;20424;-83
2023/07/26 03:32:30;;;;;;;3.67;3.38;;;;;;;12.87;93.36;101093.53;5053832;28;20108;-83
2023/07/26 03:34:55;;;;;;;4.40;3.30;;;;;;;12.86;93.92;101090.97;5056303;28;20472;-83
2023/07/26 03:37:21;;;;;;;4.90;3.38;;;;;;;12.83;93.29;101093.91;5055371;28;20100;-83
2023/07/26 03:39:46;;;;;;;4.60;3.60;;;;;;;12.78;92.89;101091.59;5050854;28;20123;-83
2023/07/26 03:42:11;;;;;;;3.92;3.35;;;;;;;12.74;92.60;101096.34;5052136;28;20424;-83
2023/07/26 03:44:36;;;;;;;3.90;3.03;;;;;;;12.73;92.91;101099.97;5057105;28;20024;-83
2023/07/26 03:47:02;;;;;;;6.43;3.97;;;;;;;12.70;93.32;101091.38;5055458;28;20025;-83
2023/07/26 03:49:27;;;;;;;3.58;3.28;;;;;;;12.66;93.66;101095.28;5048923;28;20021;-83
2023/07/26 03:51:52;;;;;;;3.40;2.72;;;;;;;12.65;93.10;101096.25;5057962;28;20158;-83
2023/07/26 03:54:18;;;;;;;3.35;3.05;;;;;;;12.60;93.31;101077.97;5063005;28;20179;-83
2023/07/26 03:56:43;;;;;;;3.60;3.00;;;;;;;12.61;94.30;101089.44;5053711;28;20075;-83
2023/07/26 03:59:09;;;;;;;3.95;2.92;;;;;;;12.56;93.90;101088.03;5064412;28;20552;-83
2023/07/26 04:01:35;;;;;;;3.05;2.72;;;;;;;12.52;93.81;101083.94;5061945;28;20425;-83
2023/07/26 04:04:00;;;;;;;4.60;3.05;;;;;;;12.47;93.06;101078.09;5061019;28;20058;-83
2023/07/26 04:06:25;;;;;;;4.85;2.92;;;;;;;12.49;93.66;101085.97;5058606;28;20021;-83
2023/07/26 04:08:50;;;;;;;4.30;3.30;;;;;;;12.44;94.45;101078.38;5049915;28;20033;-83
2023/07/26 04:11:16;;;;;;;3.40;3.10;;;;;;;12.44;94.75;101090.81;5058831;28;20546;-83
2023/07/26 04:13:41;;;;;;;5.63;3.55;;;;;;;12.42;94.59;101084.78;5056027;28;20021;-83
2023/07/26 04:16:18;;;;;;;3.45;3.13;;;;;;;12.39;94.99;101088.56;5056821;28;20029;-82
2023/07/26 04:18:44;;;;;;;5.40;3.22;;;;;;;12.33;95.38;101075.72;5058485;28;20097;-83
2023/07/26 04:21:13;;;;;;;7.78;3.72;;;;;;;12.35;95.46;101085.25;5064420;28;20040;-83
2023/07/26 04:23:38;;;;;;;6.20;3.53;;;;;;;12.31;95.21;101091.81;5061939;28;20056;-83
2023/07/26 04:26:04;;;;;;;3.58;3.28;;;;;;;12.26;96.45;101079.81;5054168;28;20063;-83
2023/07/26 04:28:29;;;;;;;5.47;3.80;;;;;;;12.25;96.14;101091.47;5063309;28;20017;-83
2023/07/26 04:30:54;;;;;;;4.30;3.90;;;;;;;12.25;95.84;101084.31;5061592;28;20025;-83
2023/07/26 04:33:20;;;;;;;4.70;4.28;;;;;;;12.20;97.13;101082.00;5060861;28;20036;-83
2023/07/26 04:35:45;;;;;;;5.93;4.55;;;;;;;12.24;96.76;101087.97;5057752;28;20112;-83
2023/07/26 04:38:12;;;;;;;5.80;5.28;;;;;;;12.24;97.45;101089.75;5062405;28;20041;-83
2023/07/26 04:40:37;;;;;;;10.43;4.82;;;;;;;12.25;97.04;101086.97;5063622;28;20079;-83
2023/07/26 04:43:03;;;;;;;6.13;5.18;;;;;;;12.26;97.51;101090.47;5058680;28;20108;-83
2023/07/26 04:45:30;;;;;;;6.70;5.07;;;;;;;12.28;98.01;101093.88;5050340;28;20079;-83
2023/07/26 04:47:55;;;;;;;5.80;5.20;;;;;;;12.30;98.31;101092.78;5048109;28;20032;-83
2023/07/26 04:50:20;;;;;;;7.70;5.50;;;;;;;12.28;98.49;101094.72;5056368;28;20021;-83
2023/07/26 04:52:45;;;;;;;5.88;5.32;;;;;;;12.32;98.91;101084.66;5057733;28;20017;-83
2023/07/26 04:55:11;;;;;;;8.90;5.85;;;;;;;12.31;99.12;101080.34;5063737;28;20070;-83
2023/07/26 04:57:39;;;;;;;8.18;6.10;;;;;;;12.34;100.00;101086.25;5057229;28;20036;-83
2023/07/26 05:00:06;;;;;;;6.13;5.53;;;;;;;12.43;99.37;101092.66;5058472;28;20047;-83
2023/07/26 05:02:32;;;;;;;9.98;6.03;;;;;;;12.46;100.00;101088.91;5056099;28;20049;-83
2023/07/26 05:04:57;;;;;;;8.10;6.25;;;;;;;12.50;99.64;101090.34;5055400;28;20021;-83
2023/07/26 05:07:22;;;;;;;7.25;6.55;;;;;;;12.54;100.00;101094.44;5058818;28;20463;-83
2023/07/26 05:09:48;;;;;;;6.88;6.18;;;;;;;12.59;100.00;101090.44;5055741;28;20028;-83
2023/07/26 05:12:13;;;;;;;7.95;6.22;;;;;;;12.62;99.92;101085.81;5055709;28;20032;-83
2023/07/26 05:14:41;;;;;;;8.25;6.72;;;;;;;12.67;100.00;101086.28;5055179;28;20017;-83
2023/07/26 05:17:06;;;;;;;8.60;6.45;;;;;;;12.72;100.00;101084.97;5049096;28;20498;-83
2023/07/26 05:19:32;;;;;;;9.27;7.10;;;;;;;12.76;100.00;101086.41;5076642;28;20017;-83
2023/07/26 05:21:57;;;;;;;9.50;6.20;;;;;;;12.83;100.00;101096.56;5060782;28;20033;-83
2023/07/26 05:24:24;;;;;;;8.45;6.68;;;;;;;12.87;100.00;101096.19;5083313;28;20073;-83
2023/07/26 05:26:50;;;;;;;8.52;6.40;;;;;;;12.91;100.00;101088.78;5080036;28;20403;-83
2023/07/26 05:29:15;;;;;;;8.82;6.20;;;;;;;12.96;100.00;101086.56;5056526;28;20032;-83
2023/07/26 05:31:40;;;;;;;8.55;6.47;;;;;;;13.02;100.00;101088.72;5062978;28;20021;-83
2023/07/26 05:34:06;;;;;;;9.32;6.65;;;;;;;13.08;100.00;101082.88;5057819;28;20103;-83
2023/07/26 05:36:31;;;;;;;11.55;6.72;;;;;;;13.22;100.00;101079.06;5051278;28;20029;-83
2023/07/26 05:38:56;;;;;;;9.23;6.28;;;;;;;13.37;100.00;101084.09;5058063;28;20426;-83
2023/07/26 05:41:22;;;;;;;9.15;6.95;;;;;;;13.46;100.00;101081.50;5049529;28;20503;-82
2023/07/26 05:43:47;;;;;;;9.95;6.90;;;;;;;13.55;100.00;101087.03;5046977;28;20452;-82
2023/07/26 05:46:12;;;;;;;9.40;6.60;;;;;;;13.72;100.00;101090.91;5058027;28;20068;-83
2023/07/26 05:48:38;;;;;;;8.23;7.18;;;;;;;13.80;99.66;101094.63;5058346;28;20021;-82
2023/07/26 05:51:03;;;;;;;10.73;7.28;;;;;;;13.92;99.39;101094.53;5052891;28;20024;-83
2023/07/26 05:53:28;;;;;;;8.60;7.00;;;;;;;13.97;99.04;101095.84;5055548;28;20021;-83
2023/07/26 05:55:54;;;;;;;8.75;6.97;;;;;;;14.03;99.45;101086.44;5060610;28;20033;-83
2023/07/26 05:58:19;;;;;;;7.68;6.40;;;;;;;14.12;98.49;101093.66;5053346;28;20059;-83
2023/07/26 06:00:44;;;;;;;10.23;7.20;;;;;;;14.19;99.41;101084.13;5051042;28;20026;-83
2023/07/26 06:03:10;;;;;;;12.95;7.20;;;;;;;14.35;99.44;101096.94;5052230;28;20076;-84
2023/07/26 06:05:35;;;;;;;12.00;7.38;;;;;;;14.47;99.13;101095.03;5054264;28;20169;-84
2023/07/26 06:08:00;;;;;;;10.80;7.30;;;;;;;14.66;99.08;101106.78;5052631;28;20029;-83
2023/07/26 06:10:26;;;;;;;13.85;8.30;;;;;;;14.80;99.59;101106.38;5062719;28;20115;-82
2023/07/26 06:12:51;;;;;;;11.27;7.68;;;;;;;14.87;98.46;101101.31;5054044;28;20023;-83
2023/07/26 06:15:17;;;;;;;11.95;8.13;;;;;;;15.00;98.32;101109.91;5053118;28;20029;-83
2023/07/26 06:17:42;;;;;;;14.07;7.55;;;;;;;15.02;98.90;101113.31;5050319;28;20025;-83
2023/07/26 06:20:10;;;;;;;14.77;7.75;;;;;;;15.07;98.17;101121.75;5051344;28;20503;-83
2023/07/26 06:22:36;;;;;;;13.82;8.75;;;;;;;15.10;97.00;101126.81;5052484;28;20048;-84
2023/07/26 06:25:01;;;;;;;11.43;7.95;;;;;;;15.13;95.78;101126.53;5053257;28;20035;-83
2023/07/26 06:27:30;;;;;;;11.15;8.52;;;;;;;15.14;96.36;101136.25;5049476;28;20095;-83
2023/07/26 06:29:57;;;;;;;14.98;8.80;;;;;;;15.17;96.31;101144.00;5048122;28;20052;-83
2023/07/26 06:32:22;;;;;;;13.48;8.77;;;;;;;15.14;96.71;101146.97;5053313;28;20658;-83
2023/07/26 06:34:48;;;;;;;14.63;8.98;;;;;;;15.13;97.04;101150.59;5052281;28;20036;-83
2023/07/26 06:37:13;;;;;;;13.82;8.07;;;;;;;15.12;95.74;101148.94;5047841;28;20594;-83
2023/07/26 06:39:38;;;;;;;11.77;8.13;;;;;;;15.12;96.43;101148.06;5047561;28;20045;-83
2023/07/26 06:42:04;;;;;;;14.13;8.35;;;;;;;15.07;96.55;101150.31;5052447;28;20467;-83
2023/07/26 06:44:29;;;;;;;12.48;8.10;;;;;;;15.05;97.29;101144.28;5049724;28;20106;-84
2023/07/26 06:46:56;;;;;;;13.98;8.77;;;;;;;15.03;98.64;101147.09;5053801;28;20025;-84
2023/07/26 06:49:21;;;;;;;13.50;8.98;;;;;;;15.03;98.04;101159.63;5056654;28;20070;-84
2023/07/26 06:51:50;;;;;;;14.97;8.80;;;;;;;15.02;98.63;101150.75;5051320;28;20119;-83
2023/07/26 06:54:15;;;;;;;12.65;8.65;;;;;;;15.08;99.91;101158.22;5053847;28;20278;-83
2023/07/26 06:56:40;;;;;;;15.38;9.05;;;;;;;15.07;100.00;101156.53;5053587;28;20021;-84
2023/07/26 06:59:11;;;;;;;13.30;8.68;;;;;;;15.10;100.00;101158.06;5053753;28;20481;-82
2023/07/26 07:01:36;;;;;;;13.70;8.70;;;;;;;15.08;100.00;101163.56;5054170;28;20609;-82
2023/07/26 07:04:02;;;;;;;11.50;8.10;;;;;;;15.06;99.43;101160.19;5052343;28;20100;-83
2023/07/26 07:06:27;;;;;;;13.95;8.48;;;;;;;15.08;100.00;101160.06;5054596;28;20040;-83
2023/07/26 07:08:53;;;;;;;11.48;8.52;;;;;;;15.05;100.00;101160.31;5055795;28;20064;-84
2023/07/26 07:11:18;;;;;;;11.13;8.57;;;;;;;15.02;100.00;101152.56;5054023;28;20036;-84
2023/07/26 07:13:43;;;;;;;12.93;7.97;;;;;;;15.05;100.00;101171.03;5048867;28;20036;-84
2023/07/26 07:16:08;;;;;;;14.38;8.57;;;;;;;15.08;100.00;101178.78;5048224;28;20140;-83
2023/07/26 07:18:34;;;;;;;14.48;9.05;;;;;;;15.06;100.00;101178.06;5053329;28;20025;-82
2023/07/26 07:21:03;;;;;;;11.40;8.23;;;;;;;15.11;100.00;101182.00;5053956;28;20060;-82
2023/07/26 07:23:29;;;;;;;13.73;9.35;;;;;;;15.09;100.00;101184.00;5065490;28;20028;-82
2023/07/26 07:25:55;;;;;;;11.70;8.65;;;;;;;15.11;100.00;101191.88;5055919;28;20021;-82
2023/07/26 07:28:20;;;;;;;17.00;9.10;;;;;;;15.14;100.00;101199.63;5066011;28;20060;-82
2023/07/26 07:30:46;;;;;;;12.55;8.48;;;;;;;15.20;100.00;101200.91;5068531;28;20262;-83
2023/07/26 07:33:11;;;;;;;12.77;8.85;;;;;;;15.22;100.00;101205.13;5061481;28;20021;-82
2023/07/26 07:35:38;;;;;;;11.50;8.00;;;;;;;15.24;100.00;101205.84;5066165;28;20538;-82
2023/07/26 07:38:04;;;;;;;14.88;9.18;;;;;;;15.29;100.00;101211.63;5050656;28;20116;-82
2023/07/26 07:40:29;;;;;;;15.85;9.40;;;;;;;15.33;100.00;101212.19;5058325;28;20033;-82
2023/07/26 07:42:54;;;;;;;14.52;9.02;;;;;;;15.35;100.00;101208.38;5047614;28;20451;-83
2023/07/26 07:45:20;;;;;;;11.45;9.15;;;;;;;15.50;100.00;101205.28;5050212;28;20353;-84
2023/07/26 07:47:45;;;;;;;10.03;8.97;;;;;;;15.78;100.00;101194.72;5045976;28;20117;-85
2023/07/26 07:50:11;;;;;;;11.98;9.75;;;;;;;16.00;100.00;101206.94;5053217;28;20279;-83
2023/07/26 07:52:36;;;;;;;13.75;9.30;;;;;;;16.20;100.00;101200.53;5057451;28;20029;-84
2023/07/26 07:55:02;;;;;;;16.73;9.50;;;;;;;16.33;100.00;101205.59;5048463;28;20340;-84
2023/07/26 07:57:27;;;;;;;13.30;9.57;;;;;;;16.59;100.00;101197.72;5050655;28;20025;-85
2023/07/26 07:59:52;;;;;;;12.10;8.48;;;;;;;16.89;97.13;101203.00;5054012;28;20046;-84
2023/07/26 08:02:17;;;;;;;10.63;7.97;;;;;;;17.18;94.58;101198.25;5060257;28;20032;-84
2023/07/26 08:04:43;;;;;;;11.52;8.43;;;;;;;17.20;90.75;101198.09;5057091;28;20040;-83
2023/07/26 08:07:08;;;;;;;14.05;8.05;;;;;;;17.51;93.49;101198.56;5060020;28;20035;-83
2023/07/26 08:09:34;;;;;;;13.18;8.73;;;;;;;17.86;92.32;101193.31;5059239;28;20336;-83
2023/07/26 08:12:00;;;;;;;12.35;8.25;;;;;;;18.19;88.54;101188.19;5064499;28;20025;-82
2023/07/26 08:14:26;;;;;;;10.40;7.72;;;;;;;18.39;85.64;101188.81;5062998;28;20060;-86
2023/07/26 08:16:53;;;;;;;12.32;8.13;;;;;;;18.84;86.50;101191.19;5054435;28;20558;-84
2023/07/26 08:19:18;;;;;;;8.88;7.20;;;;;;;19.15;83.81;101204.06;5044070;28;20078;-84
2023/07/26 08:21:44;;;;;;;14.13;7.85;;;;;;;19.33;82.03;101193.13;5057533;28;20017;-85
2023/07/26 08:24:09;;;;;;;10.45;7.97;;;;;;;19.66;81.94;101198.56;5053967;28;20033;-85
2023/07/26 08:26:34;;;;;;;12.00;7.22;;;;;;;20.08;80.07;101202.09;5050961;28;20463;-85
2023/07/26 08:29:00;;;;;;;9.98;7.10;;;;;;;20.31;78.22;101194.09;5072923;28;20444;-85
2023/07/26 08:31:25;;;;;;;11.13;6.80;;;;;;;20.65;77.26;101198.41;5061877;28;20533;-85
2023/07/26 08:33:50;;;;;;;10.07;6.72;;;;;;;21.01;72.62;101197.88;5055331;28;20276;-85
2023/07/26 08:36:15;;;;;;;9.80;6.32;;;;;;;21.18;74.54;101206.72;5052622;28;20104;-85
2023/07/26 08:38:41;;;;;;;12.10;6.88;;;;;;;21.14;70.28;101192.75;5039285;28;20044;-86
2023/07/26 08:41:07;;;;;;;10.07;6.45;;;;;;;21.10;71.26;101204.06;5053839;28;20064;-85
2023/07/26 08:43:37;;;;;;;6.80;5.60;;;;;;;21.24;72.09;101201.44;5054131;28;20025;-85
2023/07/26 08:46:05;;;;;;;9.90;6.00;;;;;;;21.34;70.70;101181.47;5061775;28;20025;-85
2023/07/26 08:48:32;;;;;;;8.68;6.22;;;;;;;21.60;70.22;101197.34;5053282;28;20530;-85
2023/07/26 08:51:00;;;;;;;8.88;5.90;;;;;;;21.96;68.83;101197.50;5052505;28;20312;-84
2023/07/26 08:53:27;;;;;;;9.05;5.68;;;;;;;22.11;66.81;101197.53;5052487;28;20043;-84
2023/07/26 08:55:53;;;;;;;7.07;5.65;;;;;;;22.44;66.69;101191.78;5050890;28;20100;-83
2023/07/26 08:58:18;;;;;;;10.68;5.47;;;;;;;22.67;65.09;101188.97;5053586;28;20550;-84
2023/07/26 09:00:44;;;;;;;7.10;4.68;;;;;;;22.84;61.12;101186.03;5051922;28;21750;-84
2023/07/26 09:03:13;;;;;;;6.25;5.45;;;;;;;22.82;63.56;101188.13;5049471;28;20371;-84
2023/07/26 09:05:39;;;;;;;6.13;4.80;;;;;;;23.13;60.65;101184.31;5060074;28;20037;-85
2023/07/26 09:08:04;;;;;;;5.65;4.07;;;;;;;23.41;58.71;101173.53;5055973;28;20032;-84
2023/07/26 09:10:31;;;;;;;5.22;4.40;;;;;;;23.39;57.15;101173.72;5052745;28;20337;-82
2023/07/26 09:13:15;;;;;;;6.80;4.50;;;;;;;23.29;59.30;101165.09;5057266;28;20054;-82
2023/07/26 09:15:42;;;;;;;7.32;4.03;;;;;;;23.01;58.60;101170.41;5058524;28;20030;-82
2023/07/26 09:18:08;;;;;;;7.38;5.13;;;;;;;22.88;59.51;101181.91;5047572;28;20044;-82
2023/07/26 09:20:35;;;;;;;9.98;4.90;;;;;;;22.91;59.89;101176.97;5055997;28;20025;-82
2023/07/26 09:23:08;;;;;;;5.75;4.50;;;;;;;23.05;60.17;101174.41;5055904;28;20061;-84
2023/07/26 09:25:39;;;;;;;9.15;4.47;;;;;;;23.12;60.24;101177.22;5060947;28;20077;-82
2023/07/26 09:28:06;;;;;;;6.07;4.45;;;;;;;23.43;57.88;101169.63;5051147;28;20041;-83
2023/07/26 09:30:36;;;;;;;6.57;4.10;;;;;;;23.40;54.70;101180.84;5047402;28;20036;-83
2023/07/26 09:33:03;;;;;;;5.13;3.90;;;;;;;23.40;55.00;101177.31;5056487;28;20076;-82
2023/07/26 09:35:31;;;;;;;6.25;4.40;;;;;;;23.25;56.25;101183.63;5057721;28;20033;-82
2023/07/26 09:37:57;;;;;;;4.60;3.30;;;;;;;23.13;52.61;101189.72;5055550;28;20036;-83
2023/07/26 09:40:33;;;;;;;6.00;3.40;;;;;;;22.84;52.76;101178.75;5065324;28;20024;-81
2023/07/26 09:42:58;;;;;;;4.68;3.13;;;;;;;22.90;47.52;101171.75;5042211;28;20025;-82
2023/07/26 09:45:24;;;;;;;2.72;2.40;;;;;;;23.05;49.81;101177.13;5065138;28;20035;-83
2023/07/26 09:47:51;;;;;;;3.30;1.98;;;;;;;23.37;50.01;101172.25;5057313;28;20021;-83
2023/07/26 09:50:31;;;;;;;2.17;1.80;;;;;;;23.72;48.19;101172.34;5059306;28;20031;-84
2023/07/26 09:52:56;;;;;;;3.00;1.90;;;;;;;23.78;43.34;101180.53;5041609;28;20448;-82
2023/07/26 09:55:27;;;;;;;2.15;1.90;;;;;;;23.60;45.72;101172.88;5054583;28;20124;-83
2023/07/26 09:57:54;;;;;;;2.30;2.08;;;;;;;23.54;46.19;101175.53;5052473;28;20028;-83
2023/07/26 10:00:21;;;;;;;2.35;1.80;;;;;;;23.49;46.98;101175.28;5052629;28;20021;-83
2023/07/26 10:02:54;;;;;;;4.50;2.63;;;;;;;23.45;47.51;101172.97;5053504;28;20040;-82
2023/07/26 10:05:20;;;;;;;3.00;2.70;;;;;;;23.35;49.26;101179.72;5040457;28;20100;-82
2023/07/26 10:07:46;;;;;;;4.90;3.40;;;;;;;23.18;48.68;101179.16;5052998;28;20107;-83
2023/07/26 10:10:15;;;;;;;20.52;6.82;;;;;;;23.10;50.92;101172.00;5049805;28;20052;-82
2023/07/26 10:12:46;;;;;;;3.95;2.88;;;;;;;22.89;50.12;101170.88;5051805;28;20448;-82
2023/07/26 10:15:15;;;;;;;5.25;3.53;;;;;;;22.82;50.76;101172.69;5047514;28;20047;-82
2023/07/26 10:17:42;;;;;;;4.53;3.85;;;;;;;22.61;51.04;101168.06;5056144;28;20025;-82
2023/07/26 10:20:09;;;;;;;6.13;4.00;;;;;;;22.74;52.16;101164.69;5056566;28;20475;-82
2023/07/26 10:22:36;;;;;;;7.60;3.92;;;;;;;23.03;53.08;101165.63;5057658;28;20029;-82
2023/07/26 10:25:02;;;;;;;6.60;4.20;;;;;;;23.43;52.78;101157.91;5058793;28;20033;-81
2023/07/26 10:27:27;;;;;;;6.72;4.35;;;;;;;23.50;51.75;101168.81;5049334;28;20086;-81
2023/07/26 10:29:53;;;;;;;7.75;4.30;;;;;;;23.58;52.72;101166.81;5049480;28;20383;-81
2023/07/26 10:32:18;;;;;;;5.32;3.90;;;;;;;23.93;52.32;101164.19;5053533;28;20434;-81
2023/07/26 10:34:43;;;;;;;7.88;3.90;;;;;;;24.02;51.74;101164.88;5053376;28;20040;-82
2023/07/26 10:37:16;;;;;;;6.95;3.67;;;;;;;23.81;52.19;101163.88;5051186;28;20044;-82
2023/07/26 10:39:41;;;;;;;6.95;3.70;;;;;;;23.50;51.55;101160.69;5065624;28;20048;-81
2023/07/26 10:42:21;;;;;;;6.28;4.43;;;;;;;23.54;51.99;101154.69;5055115;28;20051;-82
2023/07/26 10:44:46;;;;;;;4.22;3.70;;;;;;;23.36;51.85;101151.59;5041929;28;20113;-83
2023/07/26 10:47:12;;;;;;;4.47;3.70;;;;;;;23.22;52.57;101154.19;5055834;28;20100;-83
2023/07/26 10:49:37;;;;;;;6.57;4.15;;;;;;;23.30;51.50;101160.50;5055677;28;20179;-82
2023/07/26 10:52:04;;;;;;;7.65;4.28;;;;;;;23.60;52.15;101161.22;5050958;28;20037;-82
2023/07/26 10:54:46;;;;;;;6.63;4.22;;;;;;;23.88;52.97;101163.09;5048239;28;20061;-83
2023/07/26 10:57:26;;;;;;;7.38;4.47;;;;;;;24.05;49.52;101150.91;5057027;28;20025;-82
2023/07/26 10:59:56;;;;;;;7.78;4.05;;;;;;;24.18;49.67;101151.00;5060457;28;20107;-83
2023/07/26 11:02:33;;;;;;;6.50;3.97;;;;;;;24.37;49.50;101154.00;5047461;28;20049;-83
2023/07/26 11:05:00;;;;;;;5.93;3.92;;;;;;;24.54;48.66;101151.78;5064470;28;20084;-83
2023/07/26 11:08:04;;;;;;;5.90;3.72;;;;;;;24.87;49.97;101153.81;5040965;28;20025;-83
2023/07/26 11:10:31;;;;;;;5.80;4.45;;;;;;;25.13;45.16;101144.91;5046126;28;20110;-82
2023/07/26 11:13:08;;;;;;;5.25;3.92;;;;;;;25.41;49.08;101150.16;5051646;28;20029;-82
2023/07/26 11:15:36;;;;;;;6.13;4.20;;;;;;;25.56;46.92;101149.94;5052536;28;20040;-82
2023/07/26 11:18:02;;;;;;;7.10;3.67;;;;;;;25.77;44.40;101151.63;5038984;28;20387;-82
2023/07/26 11:20:27;;;;;;;4.78;3.88;;;;;;;25.78;44.14;101157.88;5048157;28;20295;-82